Time;durP1;ratioP1;P1;durP2;ratioP2;P2;SDS_P1;SDS_P2;PMS_P1;PMS_P2;Temp;Humidity;BMP_temperature;BMP_pressure;BME280_temperature;BME280_humidity;BME280_pressure;Samples;Min_cycle;Max_cycle;Signal;HPM_P1;HPM_P2
2023/03/12 00:00:33;;;;;;;0.60;0.60;;;1.00;99.90;;;;;;5040272;28;20443;-79
2023/03/12 00:02:59;;;;;;;0.50;0.50;;;0.90;99.90;;;;;;5033122;28;20618;-80
2023/03/12 00:05:24;;;;;;;0.40;0.40;;;1.00;99.90;;;;;;5047687;28;20201;-79
2023/03/12 00:07:51;;;;;;;0.47;0.47;;;1.00;99.90;;;;;;5012803;28;20223;-80
2023/03/12 00:10:17;;;;;;;0.40;0.40;;;0.90;99.90;;;;;;5024116;28;20204;-79
2023/03/12 00:12:43;;;;;;;0.43;0.43;;;1.00;99.90;;;;;;5039102;28;20492;-79
2023/03/12 00:15:08;;;;;;;0.60;0.60;;;0.90;99.90;;;;;;5019482;28;20903;-79
2023/03/12 00:17:34;;;;;;;0.50;0.50;;;0.90;99.90;;;;;;5041133;28;20560;-79
2023/03/12 00:20:00;;;;;;;0.40;0.40;;;0.90;99.90;;;;;;5034877;28;20237;-79
2023/03/12 00:22:25;;;;;;;0.50;0.50;;;0.90;99.90;;;;;;5015116;28;20643;-79
2023/03/12 00:24:53;;;;;;;0.40;0.40;;;0.90;99.90;;;;;;5031483;28;20203;-80
2023/03/12 00:27:18;;;;;;;0.40;0.40;;;0.80;99.90;;;;;;5042686;28;20210;-79
2023/03/12 00:29:44;;;;;;;0.40;0.40;;;0.70;99.90;;;;;;5035956;28;21191;-79
2023/03/12 00:32:09;;;;;;;0.40;0.40;;;0.80;99.90;;;;;;5024385;28;20192;-79
2023/03/12 00:34:35;;;;;;;0.50;0.50;;;0.70;99.90;;;;;;5013542;28;20214;-79
2023/03/12 00:37:00;;;;;;;0.50;0.50;;;0.70;99.90;;;;;;5010873;28;20175;-79
2023/03/12 00:39:26;;;;;;;0.50;0.50;;;0.50;99.90;;;;;;5026034;28;20537;-79
2023/03/12 00:41:51;;;;;;;0.40;0.40;;;0.70;99.90;;;;;;5029136;28;20187;-79
2023/03/12 00:44:17;;;;;;;0.57;0.57;;;0.60;99.90;;;;;;5031685;28;20219;-79
2023/03/12 00:46:43;;;;;;;0.40;0.40;;;0.60;99.90;;;;;;5023971;28;20242;-79
2023/03/12 00:49:09;;;;;;;0.50;0.50;;;0.60;99.90;;;;;;5006047;28;20241;-79
2023/03/12 00:51:34;;;;;;;0.50;0.50;;;0.70;99.90;;;;;;5020907;28;20179;-80
2023/03/12 00:54:00;;;;;;;0.50;0.50;;;0.60;99.90;;;;;;5028208;28;20859;-79
2023/03/12 00:56:25;;;;;;;0.50;0.50;;;0.70;99.90;;;;;;5044050;28;20175;-79
2023/03/12 00:58:51;;;;;;;0.40;0.40;;;0.60;99.90;;;;;;5028083;28;20194;-79
2023/03/12 01:01:16;;;;;;;0.50;0.50;;;0.50;99.90;;;;;;5012021;28;20188;-79
2023/03/12 01:03:42;;;;;;;0.40;0.40;;;0.50;99.90;;;;;;5013066;28;20187;-79
2023/03/12 01:06:08;;;;;;;0.40;0.40;;;0.50;99.90;;;;;;5023950;28;20183;-79
2023/03/12 01:08:33;;;;;;;0.43;0.43;;;0.50;99.90;;;;;;5012513;28;20310;-79
2023/03/12 01:10:59;;;;;;;0.60;0.60;;;0.50;99.90;;;;;;5025776;28;20183;-79
2023/03/12 01:13:25;;;;;;;0.50;0.50;;;0.40;99.90;;;;;;5029206;28;20260;-79
2023/03/12 01:15:51;;;;;;;0.40;0.40;;;0.40;99.90;;;;;;5016363;28;20438;-79
2023/03/12 01:18:16;;;;;;;0.50;0.50;;;0.40;99.90;;;;;;5021065;28;20604;-79
2023/03/12 01:20:42;;;;;;;0.50;0.50;;;0.40;99.90;;;;;;5012531;28;20233;-79
2023/03/12 01:23:08;;;;;;;0.40;0.40;;;0.40;99.90;;;;;;5020642;28;20184;-79
2023/03/12 01:25:34;;;;;;;0.40;0.40;;;0.50;99.90;;;;;;5025583;28;20202;-79
2023/03/12 01:28:00;;;;;;;0.47;0.47;;;0.40;99.90;;;;;;5029694;28;21013;-79
2023/03/12 01:30:27;;;;;;;0.60;0.60;;;0.40;99.90;;;;;;5025142;28;20577;-79
2023/03/12 01:32:52;;;;;;;0.60;0.60;;;0.40;99.90;;;;;;5027670;28;20446;-79
2023/03/12 01:35:18;;;;;;;0.40;0.40;;;0.50;99.90;;;;;;5024471;28;20511;-80
2023/03/12 01:37:43;;;;;;;0.63;0.63;;;0.40;99.90;;;;;;5015032;28;20195;-79
2023/03/12 01:40:15;;;;;;;0.60;0.60;;;0.40;99.90;;;;;;5030405;28;20187;-80
2023/03/12 01:42:40;;;;;;;0.50;0.50;;;0.40;99.90;;;;;;5023092;28;20235;-79
2023/03/12 01:45:45;;;;;;;0.50;0.50;;;0.40;99.90;;;;;;5025642;28;21247;-79
2023/03/12 01:48:10;;;;;;;0.50;0.50;;;0.30;99.90;;;;;;5024468;28;20301;-79
2023/03/12 01:50:36;;;;;;;0.60;0.60;;;0.10;99.90;;;;;;5033135;28;20533;-80
2023/03/12 01:53:02;;;;;;;0.50;0.50;;;0.20;99.90;;;;;;5025701;28;20184;-79
2023/03/12 01:55:27;;;;;;;0.50;0.50;;;0.20;99.90;;;;;;5033757;28;20709;-79
2023/03/12 01:57:56;;;;;;;0.60;0.60;;;0.30;99.90;;;;;;5030769;28;20187;-80
2023/03/12 02:00:25;;;;;;;0.50;0.50;;;0.30;99.90;;;;;;5028283;28;20191;-79
2023/03/12 02:02:52;;;;;;;0.60;0.60;;;0.10;99.90;;;;;;5018052;28;20453;-79
2023/03/12 02:05:39;;;;;;;0.40;0.40;;;0.20;99.90;;;;;;5031895;28;20430;-80
2023/03/12 02:08:05;;;;;;;0.47;0.47;;;0.20;99.90;;;;;;5025168;28;20548;-79
2023/03/12 02:10:31;;;;;;;0.50;0.50;;;0.10;99.90;;;;;;5031022;28;20434;-80
2023/03/12 02:12:56;;;;;;;0.50;0.50;;;0.20;99.90;;;;;;5031424;28;20453;-80
2023/03/12 02:15:22;;;;;;;0.60;0.60;;;0.20;99.90;;;;;;5023765;28;20199;-80
2023/03/12 02:17:48;;;;;;;0.50;0.50;;;0.20;99.90;;;;;;5032270;28;20191;-79
2023/03/12 02:20:32;;;;;;;0.50;0.50;;;0.10;99.90;;;;;;5014435;28;20439;-79
2023/03/12 02:23:10;;;;;;;0.50;0.50;;;0.20;99.90;;;;;;5015196;28;20273;-80
2023/03/12 02:25:42;;;;;;;0.60;0.60;;;0.10;99.90;;;;;;5028378;28;20468;-80
2023/03/12 02:28:12;;;;;;;0.60;0.60;;;0.10;99.90;;;;;;5030032;28;20493;-79
2023/03/12 02:30:41;;;;;;;0.50;0.50;;;-0.10;99.90;;;;;;5030825;28;20988;-80
2023/03/12 02:33:08;;;;;;;0.60;0.60;;;-0.10;99.90;;;;;;5030589;28;20450;-80
2023/03/12 02:35:35;;;;;;;0.40;0.40;;;-0.10;99.90;;;;;;5025191;28;20580;-80
2023/03/12 02:38:01;;;;;;;0.50;0.50;;;-0.10;99.90;;;;;;5011188;28;20450;-80
2023/03/12 02:40:35;;;;;;;0.50;0.50;;;0.00;99.90;;;;;;5027394;28;20451;-79
2023/03/12 02:43:04;;;;;;;0.60;0.60;;;-0.10;99.90;;;;;;5026035;28;21001;-80
2023/03/12 02:45:30;;;;;;;0.60;0.60;;;-0.10;99.90;;;;;;5028945;28;20442;-80
2023/03/12 02:47:55;;;;;;;0.50;0.50;;;-0.20;99.90;;;;;;5014099;28;20824;-79
2023/03/12 02:50:21;;;;;;;0.53;0.53;;;-0.20;99.90;;;;;;5029769;28;20499;-79
2023/03/12 02:52:47;;;;;;;0.60;0.60;;;-0.30;99.90;;;;;;5025499;28;20663;-80
2023/03/12 02:55:12;;;;;;;0.50;0.50;;;-0.40;99.90;;;;;;5031378;28;20204;-80
2023/03/12 02:57:38;;;;;;;0.70;0.70;;;-0.30;99.90;;;;;;5030457;28;20274;-80
2023/03/12 03:00:06;;;;;;;0.50;0.50;;;-0.30;99.90;;;;;;5033427;28;20179;-80
2023/03/12 03:02:32;;;;;;;0.47;0.47;;;-0.20;99.90;;;;;;5031968;28;20636;-80
2023/03/12 03:04:57;;;;;;;0.47;0.47;;;-0.10;99.90;;;;;;5030058;28;20546;-79
2023/03/12 03:07:26;;;;;;;0.40;0.40;;;-0.10;99.90;;;;;;5021700;28;20584;-79
2023/03/12 03:09:51;;;;;;;0.50;0.50;;;-0.40;99.90;;;;;;5039048;28;20188;-80
2023/03/12 03:12:17;;;;;;;0.50;0.50;;;-0.30;99.90;;;;;;5035265;28;20438;-79
2023/03/12 03:14:42;;;;;;;0.50;0.50;;;-0.30;99.90;;;;;;5009341;28;20550;-79
2023/03/12 03:17:08;;;;;;;0.50;0.50;;;-0.30;99.90;;;;;;5029282;28;20187;-79
2023/03/12 03:19:33;;;;;;;0.47;0.47;;;-0.30;99.90;;;;;;5020913;28;20188;-80
2023/03/12 03:21:59;;;;;;;0.60;0.60;;;-0.30;99.90;;;;;;5026665;28;20589;-80
2023/03/12 03:24:24;;;;;;;0.60;0.60;;;-0.20;99.90;;;;;;5029408;28;20210;-80
2023/03/12 03:26:50;;;;;;;0.60;0.60;;;-0.20;99.90;;;;;;5030694;28;20204;-80
2023/03/12 03:29:21;;;;;;;0.50;0.50;;;-0.20;99.90;;;;;;5023237;28;20566;-79
2023/03/12 03:31:53;;;;;;;0.60;0.60;;;-0.20;99.90;;;;;;5028253;28;20567;-79
2023/03/12 03:34:28;;;;;;;0.60;0.60;;;-0.20;99.90;;;;;;5028677;28;20454;-79
2023/03/12 03:36:53;;;;;;;0.53;0.53;;;-0.20;99.90;;;;;;5020640;28;20480;-79
2023/03/12 03:39:53;;;;;;;0.40;0.40;;;-0.20;99.90;;;;;;5031827;28;20481;-79
2023/03/12 03:42:27;;;;;;;0.60;0.60;;;-0.40;99.90;;;;;;5023973;28;20188;-79
2023/03/12 03:45:12;;;;;;;0.60;0.60;;;-0.30;99.90;;;;;;5025741;28;20447;-80
2023/03/12 03:47:38;;;;;;;0.40;0.40;;;-0.20;99.90;;;;;;5027864;28;20491;-79
2023/03/12 03:50:10;;;;;;;0.60;0.60;;;-0.30;99.90;;;;;;5012441;28;20443;-79
2023/03/12 03:52:51;;;;;;;0.50;0.50;;;-0.30;99.90;;;;;;5030088;28;20442;-79
2023/03/12 03:55:17;;;;;;;0.40;0.40;;;-0.20;99.90;;;;;;5004744;28;20974;-79
2023/03/12 03:57:42;;;;;;;0.50;0.50;;;-0.20;99.90;;;;;;5027833;28;20506;-79
2023/03/12 04:00:11;;;;;;;0.60;0.60;;;-0.20;99.90;;;;;;5029722;28;20434;-79
2023/03/12 04:02:40;;;;;;;0.50;0.50;;;-0.30;99.90;;;;;;5016083;28;20195;-79
2023/03/12 04:05:06;;;;;;;0.50;0.50;;;-0.30;99.90;;;;;;5017981;28;20443;-79
2023/03/12 04:07:32;;;;;;;0.60;0.60;;;-0.30;99.90;;;;;;5013642;28;20870;-79
2023/03/12 04:09:58;;;;;;;0.60;0.60;;;-0.30;99.90;;;;;;5019591;28;20446;-79
2023/03/12 04:12:24;;;;;;;0.50;0.50;;;-0.30;99.90;;;;;;5017284;28;20489;-79
2023/03/12 04:14:53;;;;;;;0.60;0.60;;;-0.40;99.90;;;;;;5023584;28;20180;-79
2023/03/12 04:17:19;;;;;;;0.40;0.40;;;-0.30;99.90;;;;;;5027632;28;20945;-78
2023/03/12 04:19:44;;;;;;;0.60;0.60;;;-0.40;99.90;;;;;;5015132;28;20487;-78
2023/03/12 04:22:10;;;;;;;0.60;0.60;;;-0.40;99.90;;;;;;5025131;28;20566;-79
2023/03/12 04:24:45;;;;;;;0.50;0.50;;;-0.40;99.90;;;;;;5029909;28;20297;-79
2023/03/12 04:27:10;;;;;;;0.60;0.60;;;-0.50;99.90;;;;;;5038835;28;20214;-79
2023/03/12 04:29:38;;;;;;;0.60;0.60;;;-0.40;99.90;;;;;;5010683;28;20450;-79
2023/03/12 04:32:26;;;;;;;0.60;0.60;;;-0.50;99.90;;;;;;5038199;28;20186;-79
2023/03/12 04:34:51;;;;;;;0.60;0.60;;;-0.60;99.90;;;;;;5039141;28;20507;-79
2023/03/12 04:37:17;;;;;;;0.50;0.50;;;-0.60;99.90;;;;;;5029108;28;20533;-79
2023/03/12 04:39:53;;;;;;;0.50;0.50;;;-0.60;99.90;;;;;;5030495;28;20225;-79
2023/03/12 04:42:18;;;;;;;0.50;0.50;;;-0.70;99.90;;;;;;5029990;28;20221;-79
2023/03/12 04:44:51;;;;;;;0.60;0.60;;;-0.70;99.90;;;;;;5030126;28;20970;-79
2023/03/12 04:47:39;;;;;;;;;;;;;;;;;;;;;
2023/03/12 04:50:07;;;;;;;0.70;0.70;;;-0.70;99.90;;;;;;5023376;28;20439;-78
2023/03/12 04:52:44;;;;;;;0.70;0.70;;;-0.60;99.90;;;;;;5028096;28;20444;-79
2023/03/12 04:58:00;;;;;;;0.53;0.53;;;-0.60;99.90;;;;;;5037827;28;20440;-79
2023/03/12 05:01:00;;;;;;;0.60;0.60;;;-0.70;99.90;;;;;;5027420;28;20447;-79
2023/03/12 05:03:28;;;;;;;0.67;0.67;;;-0.70;99.90;;;;;;5017606;28;20452;-79
2023/03/12 05:05:54;;;;;;;0.40;0.40;;;-0.70;99.90;;;;;;5021212;28;20453;-79
2023/03/12 05:08:19;;;;;;;0.47;0.47;;;-0.70;99.90;;;;;;5032665;28;20493;-79
2023/03/12 05:10:50;;;;;;;0.60;0.60;;;-0.70;99.90;;;;;;5019709;28;20453;-79
2023/03/12 05:13:38;;;;;;;0.50;0.50;;;-0.70;99.90;;;;;;5025253;28;20647;-79
2023/03/12 05:16:04;;;;;;;0.60;0.60;;;-0.70;99.90;;;;;;5027374;28;20482;-79
2023/03/12 05:18:30;;;;;;;0.50;0.50;;;-0.80;99.90;;;;;;5022799;28;20453;-79
2023/03/12 05:21:02;;;;;;;0.70;0.70;;;-0.80;99.90;;;;;;5009804;28;21724;-78
2023/03/12 05:26:48;;;;;;;0.57;0.57;;;-0.80;99.90;;;;;;5020329;28;20437;-78
2023/03/12 05:29:14;;;;;;;0.50;0.50;;;-0.90;99.90;;;;;;5030564;28;20520;-79
2023/03/12 05:31:40;;;;;;;0.60;0.60;;;-0.80;99.90;;;;;;5029987;28;20987;-78
2023/03/12 05:34:05;;;;;;;0.60;0.60;;;-0.80;99.90;;;;;;5027139;28;20575;-78
2023/03/12 05:36:31;;;;;;;0.60;0.60;;;-0.80;99.90;;;;;;5003150;28;20446;-79
2023/03/12 05:38:57;;;;;;;0.60;0.60;;;-0.80;99.90;;;;;;5017957;28;20219;-79
2023/03/12 05:41:25;;;;;;;0.70;0.70;;;-0.70;99.90;;;;;;5021302;28;20185;-78
2023/03/12 05:43:52;;;;;;;0.60;0.60;;;-0.70;99.90;;;;;;5030032;28;20235;-79
2023/03/12 05:46:18;;;;;;;0.53;0.53;;;-0.80;99.90;;;;;;5032509;28;20976;-79
2023/03/12 05:48:53;;;;;;;0.60;0.60;;;-0.80;99.90;;;;;;5021697;28;20572;-79
2023/03/12 05:51:19;;;;;;;0.40;0.40;;;-0.70;99.90;;;;;;5016174;28;20200;-79
2023/03/12 05:53:45;;;;;;;0.50;0.50;;;-0.80;99.90;;;;;;5016609;28;20451;-79
2023/03/12 05:56:13;;;;;;;0.40;0.40;;;-0.80;99.90;;;;;;5024658;28;20820;-79
2023/03/12 05:58:39;;;;;;;0.73;0.73;;;-0.80;99.90;;;;;;5037104;28;20686;-78
2023/03/12 06:01:17;;;;;;;0.70;0.70;;;-0.80;99.90;;;;;;5013575;28;20434;-78
2023/03/12 06:03:42;;;;;;;0.73;0.73;;;-0.70;99.90;;;;;;5022371;28;20442;-79
2023/03/12 06:06:09;;;;;;;0.53;0.53;;;-0.80;99.90;;;;;;5034389;28;20433;-79
2023/03/12 06:08:34;;;;;;;0.50;0.50;;;-0.80;99.90;;;;;;5013755;28;20733;-79
2023/03/12 06:11:00;;;;;;;0.50;0.50;;;-0.80;99.90;;;;;;5025154;28;20467;-78
2023/03/12 06:13:27;;;;;;;0.70;0.70;;;-0.90;99.90;;;;;;5031557;28;20249;-78
2023/03/12 06:15:53;;;;;;;0.50;0.50;;;-0.90;99.90;;;;;;5031496;28;20176;-79
2023/03/12 06:18:18;;;;;;;0.80;0.80;;;-0.90;99.90;;;;;;5029598;28;20449;-78
2023/03/12 06:20:44;;;;;;;0.60;0.60;;;-1.00;99.90;;;;;;5034002;28;20274;-79
2023/03/12 06:23:10;;;;;;;0.50;0.50;;;-1.00;99.90;;;;;;5028018;28;20647;-79
2023/03/12 06:25:35;;;;;;;0.60;0.60;;;-0.90;99.90;;;;;;5030768;28;20242;-78
2023/03/12 06:28:01;;;;;;;0.43;0.43;;;-1.00;99.90;;;;;;5029674;28;20235;-78
2023/03/12 06:30:26;;;;;;;0.60;0.60;;;-0.90;99.90;;;;;;5032750;28;20314;-79
2023/03/12 06:32:52;;;;;;;0.60;0.60;;;-0.90;99.90;;;;;;5013371;28;20183;-79
2023/03/12 06:35:18;;;;;;;0.70;0.70;;;-0.80;99.90;;;;;;5030672;28;20730;-79
2023/03/12 06:37:44;;;;;;;0.60;0.60;;;-0.80;99.90;;;;;;5030840;28;20191;-78
2023/03/12 06:40:11;;;;;;;0.50;0.50;;;-0.70;99.90;;;;;;5031252;28;20963;-79
2023/03/12 06:43:02;;;;;;;0.57;0.57;;;-0.70;99.90;;;;;;5043978;28;20203;-78
2023/03/12 06:45:28;;;;;;;0.60;0.60;;;-0.70;99.90;;;;;;5014465;28;20439;-78
2023/03/12 06:47:53;;;;;;;0.70;0.70;;;-0.60;99.90;;;;;;5004490;28;20495;-78
2023/03/12 06:50:34;;;;;;;0.60;0.60;;;-0.60;99.90;;;;;;5006551;28;20200;-78
2023/03/12 06:53:03;;;;;;;0.60;0.60;;;-0.50;99.90;;;;;;5011602;28;20196;-79
2023/03/12 06:56:20;;;;;;;;;;;;;;;;;;;;;
2023/03/12 06:58:46;;;;;;;0.60;0.60;;;-0.50;99.90;;;;;;4987845;28;20447;-77
2023/03/12 07:01:12;;;;;;;0.43;0.43;;;-0.40;99.90;;;;;;5008030;28;20449;-78
2023/03/12 07:03:37;;;;;;;0.60;0.60;;;-0.30;99.90;;;;;;5006456;28;20200;-78
2023/03/12 07:06:37;;;;;;;0.50;0.50;;;-0.40;99.90;;;;;;5008503;28;20540;-77
2023/03/12 07:09:05;;;;;;;0.60;0.60;;;-0.30;99.90;;;;;;5004059;28;20259;-77
2023/03/12 07:12:12;;;;;;;0.40;0.40;;;-0.40;99.90;;;;;;5011359;28;20478;-78
2023/03/12 07:14:37;;;;;;;0.60;0.60;;;-0.30;99.90;;;;;;5007222;28;21103;-78
2023/03/12 07:17:06;;;;;;;0.43;0.43;;;-0.30;99.90;;;;;;5007573;28;20451;-78
2023/03/12 07:19:32;;;;;;;0.50;0.50;;;-0.30;99.90;;;;;;5017139;28;21848;-78
2023/03/12 07:21:57;;;;;;;0.47;0.47;;;-0.30;99.90;;;;;;5023496;28;20434;-78
2023/03/12 07:24:23;;;;;;;0.50;0.50;;;-0.30;99.90;;;;;;5025214;28;20188;-77
2023/03/12 07:26:48;;;;;;;0.50;0.50;;;-0.20;99.90;;;;;;5023310;28;20223;-78
2023/03/12 07:29:14;;;;;;;0.50;0.50;;;-0.20;99.90;;;;;;5023236;28;20291;-77
2023/03/12 07:31:39;;;;;;;0.60;0.60;;;-0.30;99.90;;;;;;5024994;28;20557;-78
2023/03/12 07:34:05;;;;;;;0.50;0.50;;;-0.20;99.90;;;;;;5025886;28;20188;-78
2023/03/12 07:36:57;;;;;;;0.50;0.50;;;-0.10;99.90;;;;;;5011968;28;20190;-76
2023/03/12 07:39:22;;;;;;;0.50;0.50;;;-0.10;99.90;;;;;;5027397;28;20191;-77
2023/03/12 07:41:47;;;;;;;0.60;0.60;;;-0.10;99.90;;;;;;5025377;28;20446;-77
2023/03/12 07:44:35;;;;;;;0.60;0.60;;;-0.10;99.90;;;;;;5030621;28;20691;-78
2023/03/12 07:47:01;;;;;;;0.57;0.57;;;0.00;99.90;;;;;;5026178;28;20211;-77
2023/03/12 07:49:26;;;;;;;0.57;0.57;;;-0.10;99.90;;;;;;5030390;28;20644;-77
2023/03/12 07:51:52;;;;;;;0.50;0.50;;;-0.10;99.90;;;;;;5019807;28;20190;-77
2023/03/12 07:54:37;;;;;;;0.50;0.50;;;0.00;99.90;;;;;;5015403;28;20193;-78
2023/03/12 08:01:09;;;;;;;;;;;;;;;;;;;;;
2023/03/12 08:06:25;;;;;;;0.50;0.50;;;0.30;99.90;;;;;;5032691;28;20537;-77
2023/03/12 08:08:51;;;;;;;0.50;0.50;;;0.30;99.90;;;;;;5044051;28;20595;-77
2023/03/12 08:11:17;;;;;;;0.50;0.50;;;0.50;99.90;;;;;;5042744;28;20470;-77
2023/03/12 08:13:45;;;;;;;0.47;0.47;;;0.40;99.90;;;;;;5050341;28;20600;-77
2023/03/12 08:16:26;;;;;;;0.50;0.50;;;0.30;99.90;;;;;;5046664;28;20202;-77
2023/03/12 08:21:43;;;;;;;0.50;0.50;;;0.40;99.90;;;;;;5001530;28;20451;-77
2023/03/12 08:24:09;;;;;;;0.50;0.50;;;0.30;99.90;;;;;;5023880;28;20445;-77
2023/03/12 08:26:35;;;;;;;0.60;0.60;;;0.30;99.90;;;;;;5033279;28;20277;-78
2023/03/12 08:29:00;;;;;;;0.50;0.50;;;0.20;99.90;;;;;;5040679;28;20176;-78
2023/03/12 08:31:28;;;;;;;0.40;0.40;;;0.20;99.90;;;;;;5039062;28;20651;-77
2023/03/12 08:34:14;;;;;;;0.50;0.50;;;0.20;99.90;;;;;;5010400;28;20190;-77
2023/03/12 08:36:49;;;;;;;0.40;0.40;;;0.40;99.90;;;;;;5034398;28;20775;-76
2023/03/12 08:39:15;;;;;;;0.50;0.50;;;0.40;99.90;;;;;;5025533;28;20445;-77
2023/03/12 08:41:41;;;;;;;0.50;0.50;;;0.40;99.90;;;;;;5030249;28;20452;-77
2023/03/12 08:44:06;;;;;;;0.40;0.40;;;0.40;99.90;;;;;;5028435;28;20239;-78
2023/03/12 08:46:40;;;;;;;0.53;0.53;;;0.40;99.90;;;;;;5029010;28;20460;-77
2023/03/12 08:49:06;;;;;;;0.50;0.50;;;0.40;99.90;;;;;;5029528;28;20191;-78
2023/03/12 08:51:58;;;;;;;;;;;;;;;;;;;;;
2023/03/12 08:54:26;;;;;;;0.50;0.50;;;0.50;99.90;;;;;;5026962;28;20841;-78
2023/03/12 08:56:52;;;;;;;0.40;0.40;;;0.60;99.90;;;;;;5029939;28;20464;-77
2023/03/12 09:00:14;;;;;;;;;;;;;;;;;;;;;
2023/03/12 09:02:43;;;;;;;0.50;0.50;;;0.60;99.90;;;;;;4996229;28;20950;-78
2023/03/12 09:05:10;;;;;;;0.50;0.50;;;0.80;99.90;;;;;;5041383;28;20441;-78
2023/03/12 09:07:36;;;;;;;0.47;0.47;;;0.90;99.90;;;;;;5036604;28;20474;-77
2023/03/12 09:10:01;;;;;;;0.50;0.50;;;1.00;99.90;;;;;;5024569;28;20489;-78
2023/03/12 09:12:27;;;;;;;0.40;0.40;;;1.20;99.90;;;;;;5028224;28;20191;-78
2023/03/12 09:14:52;;;;;;;0.50;0.50;;;1.20;99.90;;;;;;5028726;28;20194;-78
2023/03/12 09:17:18;;;;;;;0.43;0.43;;;1.20;99.90;;;;;;5018448;28;20597;-78
2023/03/12 09:19:43;;;;;;;0.40;0.40;;;1.30;99.90;;;;;;5014473;28;20241;-79
2023/03/12 09:22:09;;;;;;;0.50;0.50;;;1.30;99.90;;;;;;5034786;28;20183;-78
2023/03/12 09:24:35;;;;;;;0.50;0.50;;;1.40;99.90;;;;;;5046640;28;20256;-79
2023/03/12 09:27:03;;;;;;;0.50;0.50;;;1.40;99.90;;;;;;5029148;28;20762;-78
2023/03/12 09:29:29;;;;;;;0.40;0.40;;;1.50;99.90;;;;;;5039259;28;20979;-78
2023/03/12 09:31:54;;;;;;;0.40;0.40;;;1.80;99.90;;;;;;5046988;28;21156;-78
2023/03/12 09:34:20;;;;;;;0.50;0.50;;;1.90;99.90;;;;;;5029568;28;20434;-78
2023/03/12 09:36:45;;;;;;;0.50;0.50;;;1.80;99.90;;;;;;5025487;28;20554;-78
2023/03/12 09:39:11;;;;;;;0.40;0.40;;;1.70;99.90;;;;;;5029700;28;20171;-78
2023/03/12 09:41:39;;;;;;;0.50;0.50;;;1.80;99.90;;;;;;5028013;28;20188;-79
2023/03/12 09:44:19;;;;;;;0.50;0.50;;;1.80;99.90;;;;;;5030372;28;20230;-78
2023/03/12 09:46:52;;;;;;;0.40;0.40;;;1.80;99.90;;;;;;5030616;28;20433;-79
2023/03/12 09:49:29;;;;;;;0.40;0.40;;;1.80;99.90;;;;;;5021348;28;20442;-79
2023/03/12 09:51:57;;;;;;;0.33;0.33;;;1.90;99.90;;;;;;5035645;28;20441;-79
2023/03/12 09:54:33;;;;;;;0.50;0.50;;;2.00;99.90;;;;;;5010036;28;20423;-79
2023/03/12 09:57:03;;;;;;;0.40;0.40;;;2.20;99.90;;;;;;5037213;28;20555;-79
2023/03/12 09:59:28;;;;;;;0.50;0.50;;;2.10;99.90;;;;;;5028964;28;20516;-79
2023/03/12 10:02:00;;;;;;;0.50;0.50;;;2.20;99.90;;;;;;5030521;28;20441;-78
2023/03/12 10:04:40;;;;;;;0.40;0.40;;;2.30;99.90;;;;;;5029098;28;20183;-79
2023/03/12 10:07:45;;;;;;;0.50;0.50;;;2.30;99.90;;;;;;5028961;28;20553;-78
2023/03/12 10:10:42;;;;;;;0.40;0.40;;;2.30;99.90;;;;;;4991766;28;20538;-78
2023/03/12 10:13:42;;;;;;;0.40;0.40;;;2.70;99.90;;;;;;5024104;28;20813;-79
2023/03/12 10:16:49;;;;;;;0.50;0.50;;;2.90;99.90;;;;;;5023546;28;20442;-79
2023/03/12 10:19:59;;;;;;;0.40;0.40;;;3.00;99.90;;;;;;4987706;28;20459;-79
2023/03/12 10:22:50;;;;;;;0.50;0.50;;;3.20;99.90;;;;;;5019364;28;20832;-79
2023/03/12 10:25:42;;;;;;;0.40;0.40;;;3.20;99.90;;;;;;5041109;28;20439;-79
2023/03/12 10:28:17;;;;;;;0.30;0.30;;;3.10;99.90;;;;;;5036443;28;20972;-79
2023/03/12 10:30:49;;;;;;;0.40;0.40;;;3.00;99.90;;;;;;5022158;28;20477;-79
2023/03/12 10:33:17;;;;;;;0.50;0.50;;;3.20;99.90;;;;;;5041636;28;20438;-79
2023/03/12 10:35:43;;;;;;;0.40;0.40;;;3.20;99.90;;;;;;5027954;28;20465;-79
2023/03/12 10:38:35;;;;;;;0.40;0.40;;;3.50;99.90;;;;;;5029695;28;20945;-79
2023/03/12 10:41:14;;;;;;;0.40;0.40;;;3.60;99.90;;;;;;5017603;28;20460;-79
2023/03/12 10:43:40;;;;;;;0.50;0.50;;;3.50;99.90;;;;;;5030006;28;20485;-79
2023/03/12 10:46:33;;;;;;;0.30;0.30;;;3.40;99.90;;;;;;5019212;28;20442;-79
2023/03/12 10:49:20;;;;;;;0.40;0.40;;;3.40;99.90;;;;;;5031659;28;21230;-79
2023/03/12 10:51:58;;;;;;;0.37;0.37;;;3.60;99.90;;;;;;5029468;28;20808;-79
2023/03/12 10:54:36;;;;;;;0.37;0.37;;;3.70;99.90;;;;;;5028282;28;20426;-79
2023/03/12 10:57:03;;;;;;;0.40;0.40;;;3.60;99.90;;;;;;5031256;28;20444;-79
2023/03/12 10:59:31;;;;;;;0.40;0.40;;;3.60;99.90;;;;;;5029895;28;20434;-79
2023/03/12 11:01:57;;;;;;;0.40;0.40;;;3.50;99.90;;;;;;5036045;28;20442;-79
2023/03/12 11:04:31;;;;;;;0.40;0.40;;;3.60;99.90;;;;;;5031051;28;20430;-79
2023/03/12 11:07:20;;;;;;;0.40;0.40;;;3.70;99.90;;;;;;5025647;28;20500;-79
2023/03/12 11:10:11;;;;;;;0.30;0.30;;;3.80;99.90;;;;;;5029573;28;20453;-79
2023/03/12 11:12:38;;;;;;;0.30;0.30;;;3.80;99.90;;;;;;5009748;28;20443;-79
2023/03/12 11:15:30;;;;;;;0.40;0.40;;;3.90;99.90;;;;;;5018859;28;20440;-78
2023/03/12 11:18:24;;;;;;;0.40;0.40;;;3.90;99.90;;;;;;5029062;28;20878;-79
2023/03/12 11:20:55;;;;;;;0.40;0.40;;;4.00;99.90;;;;;;5030552;28;20982;-79
2023/03/12 11:23:27;;;;;;;0.40;0.40;;;3.90;99.90;;;;;;5031042;28;20454;-79
2023/03/12 11:25:59;;;;;;;0.40;0.40;;;3.80;99.90;;;;;;5028525;28;20445;-78
2023/03/12 11:28:37;;;;;;;0.40;0.40;;;3.80;99.90;;;;;;5027836;28;20484;-78
2023/03/12 11:31:07;;;;;;;0.40;0.40;;;3.80;99.90;;;;;;5032552;28;20434;-78
2023/03/12 11:33:33;;;;;;;0.40;0.40;;;3.80;99.90;;;;;;5026870;28;20438;-78
2023/03/12 11:36:16;;;;;;;0.40;0.40;;;3.80;99.90;;;;;;5024121;28;20498;-79
2023/03/12 11:38:44;;;;;;;0.37;0.37;;;3.80;99.90;;;;;;5038164;28;20257;-79
2023/03/12 11:41:26;;;;;;;0.33;0.33;;;3.80;99.90;;;;;;5031686;28;20441;-79
2023/03/12 11:44:05;;;;;;;0.40;0.40;;;3.80;99.90;;;;;;5033175;28;20527;-79
2023/03/12 11:46:55;;;;;;;0.40;0.40;;;3.80;99.90;;;;;;5032552;28;20449;-79
2023/03/12 11:49:20;;;;;;;0.40;0.40;;;3.90;99.90;;;;;;5029088;28;20466;-78
2023/03/12 11:51:54;;;;;;;0.40;0.40;;;3.80;99.90;;;;;;5029013;28;20438;-79
2023/03/12 11:54:48;;;;;;;0.40;0.40;;;3.80;99.90;;;;;;5031358;28;20249;-79
2023/03/12 11:57:45;;;;;;;0.40;0.40;;;3.90;99.90;;;;;;5012043;28;20438;-80
2023/03/12 12:00:16;;;;;;;0.30;0.30;;;3.90;99.90;;;;;;5027767;28;20504;-79
2023/03/12 12:03:03;;;;;;;0.40;0.40;;;4.00;99.90;;;;;;5014535;28;20569;-79
2023/03/12 12:06:13;;;;;;;0.40;0.40;;;4.00;99.90;;;;;;5019115;28;20453;-79
2023/03/12 12:08:55;;;;;;;0.40;0.40;;;4.00;99.90;;;;;;5005698;28;20488;-78
2023/03/12 12:11:32;;;;;;;0.40;0.40;;;4.00;99.90;;;;;;5013626;28;21026;-79
2023/03/12 12:14:14;;;;;;;0.40;0.40;;;4.20;99.90;;;;;;5022852;28;20446;-79
2023/03/12 12:16:42;;;;;;;0.40;0.40;;;4.30;99.90;;;;;;5027286;28;20446;-78
2023/03/12 12:19:30;;;;;;;0.40;0.40;;;4.50;99.90;;;;;;5027403;28;20434;-79
2023/03/12 12:22:33;;;;;;;0.30;0.30;;;4.70;99.90;;;;;;5010067;28;20485;-78
2023/03/12 12:25:17;;;;;;;0.37;0.37;;;4.60;99.90;;;;;;5009861;28;20473;-79
2023/03/12 12:28:12;;;;;;;0.40;0.40;;;4.60;99.90;;;;;;5027351;28;20481;-79
2023/03/12 12:30:58;;;;;;;0.37;0.37;;;4.60;99.90;;;;;;5014858;28;20454;-79
2023/03/12 12:33:56;;;;;;;0.40;0.40;;;4.40;99.90;;;;;;5029309;28;20445;-78
2023/03/12 12:36:24;;;;;;;0.37;0.37;;;4.30;99.90;;;;;;5007252;28;20459;-79
2023/03/12 12:39:00;;;;;;;0.40;0.40;;;4.20;99.90;;;;;;5031688;28;21346;-79
2023/03/12 12:41:31;;;;;;;0.40;0.40;;;4.10;99.90;;;;;;5027940;28;20795;-79
2023/03/12 12:44:05;;;;;;;0.40;0.40;;;4.10;99.90;;;;;;5027689;28;20816;-79
2023/03/12 12:46:36;;;;;;;0.40;0.40;;;4.00;99.90;;;;;;5019401;28;20533;-79
2023/03/12 12:49:12;;;;;;;0.40;0.40;;;3.90;99.90;;;;;;5019098;28;20523;-79
2023/03/12 12:51:43;;;;;;;0.50;0.50;;;3.90;99.90;;;;;;5042788;28;20791;-78
2023/03/12 12:54:33;;;;;;;0.50;0.50;;;3.80;99.90;;;;;;5028073;28;20442;-79
2023/03/12 12:57:17;;;;;;;0.40;0.40;;;3.80;99.90;;;;;;5021870;28;20441;-79
2023/03/12 12:59:49;;;;;;;0.40;0.40;;;3.80;99.90;;;;;;5024379;28;20521;-78
2023/03/12 13:02:19;;;;;;;0.40;0.40;;;3.80;99.90;;;;;;5030039;28;20446;-79
2023/03/12 13:04:45;;;;;;;0.40;0.40;;;3.80;99.90;;;;;;5023713;28;20478;-78
2023/03/12 13:07:11;;;;;;;0.40;0.40;;;3.70;99.90;;;;;;5026217;28;20573;-78
2023/03/12 13:09:57;;;;;;;0.40;0.40;;;3.80;99.90;;;;;;5021552;28;20475;-78
2023/03/12 13:12:31;;;;;;;0.30;0.30;;;3.70;99.90;;;;;;5040509;28;20183;-78
2023/03/12 13:14:59;;;;;;;0.50;0.50;;;3.70;99.90;;;;;;5024587;28;20446;-78
2023/03/12 13:17:54;;;;;;;0.50;0.50;;;3.70;99.90;;;;;;5025619;28;20698;-78
2023/03/12 13:20:23;;;;;;;0.40;0.40;;;3.80;99.90;;;;;;5012049;28;20481;-78
2023/03/12 13:22:57;;;;;;;0.50;0.50;;;3.80;99.90;;;;;;5031601;28;20442;-78
2023/03/12 13:25:30;;;;;;;0.40;0.40;;;3.80;99.90;;;;;;5011396;28;20446;-78
2023/03/12 13:27:58;;;;;;;0.40;0.40;;;3.80;99.90;;;;;;5003892;28;20486;-79
2023/03/12 13:30:32;;;;;;;0.40;0.40;;;3.80;99.90;;;;;;5015156;28;20484;-79
2023/03/12 13:33:00;;;;;;;0.40;0.40;;;3.80;99.90;;;;;;5019212;28;20465;-79
2023/03/12 13:35:28;;;;;;;0.50;0.50;;;3.80;99.90;;;;;;4991781;28;20700;-79
2023/03/12 13:37:53;;;;;;;0.43;0.43;;;3.90;99.90;;;;;;5008147;28;20434;-79